PFO Airport Information

Details

Type: Airport (Aerodrome, Airfield)
Use: Public/Civil, International (customs port of entry)
Latitude: 34°43’05″N (34.718039)
Longitude: 32°29’09″E (32.485731)
Datum: WGS 1984
Elevation: 41 ft (12 m)
Variation: 5.01°E (WMM2015 magnetic declination)
0.09° annual change
Runways: 1
Longest: 8858 × 148 ft (2700 × 45 m), paved

Time

Timezone: UTC+2 (DST+3)
The time in Paphos Airport is: 21:52

Weather

LCPH 041830Z 28006KT 6000 NSC 26/24 Q1005

NOTAMS

Paphos airport related Notices to Airmen can be found at the FAA website.

Paphos Airport Weather